createdAt,value
2018-05-18T00:00:58.422Z,99.90
2018-05-18T00:05:51.719Z,99.90
2018-05-18T00:10:45.041Z,99.90
2018-05-18T00:15:38.365Z,99.90
2018-05-18T00:20:31.687Z,99.90
2018-05-18T00:25:25.779Z,99.90
2018-05-18T00:30:19.832Z,99.90
2018-05-18T00:35:13.130Z,99.90
2018-05-18T00:40:06.444Z,99.90
2018-05-18T00:44:59.747Z,99.90
2018-05-18T00:49:53.815Z,99.90
2018-05-18T00:54:47.880Z,99.90
2018-05-18T00:59:41.176Z,99.90
2018-05-18T01:04:35.272Z,99.90
2018-05-18T01:09:29.340Z,99.90
2018-05-18T01:14:22.644Z,99.90
2018-05-18T01:19:16.776Z,99.90
2018-05-18T01:24:10.076Z,99.90
2018-05-18T01:29:03.384Z,99.90
2018-05-18T01:33:56.691Z,99.90
2018-05-18T01:38:50.017Z,99.90
2018-05-18T01:43:43.326Z,99.90
2018-05-18T01:48:37.446Z,99.90
2018-05-18T01:53:31.486Z,99.90
2018-05-18T01:58:24.783Z,99.90
2018-05-18T02:03:18.877Z,99.90
2018-05-18T02:08:12.178Z,99.90
2018-05-18T02:13:05.479Z,99.90
2018-05-18T02:17:58.778Z,99.90
2018-05-18T02:22:52.106Z,99.90
2018-05-18T02:27:45.417Z,99.90
2018-05-18T02:32:38.713Z,99.90
2018-05-18T02:37:32.027Z,99.90
2018-05-18T02:42:26.110Z,99.90
2018-05-18T02:47:19.418Z,99.90
2018-05-18T02:52:12.720Z,99.90
2018-05-18T02:57:06.014Z,99.90
2018-05-18T03:01:59.390Z,99.90
2018-05-18T03:06:52.641Z,99.90
2018-05-18T03:11:45.933Z,99.90
2018-05-18T03:16:39.238Z,99.90
2018-05-18T03:21:32.518Z,99.90
2018-05-18T03:26:25.815Z,99.90
2018-05-18T03:31:19.869Z,99.90
2018-05-18T03:36:13.187Z,99.90
2018-05-18T03:41:07.264Z,99.90
2018-05-18T03:46:00.928Z,99.90
2018-05-18T03:50:54.219Z,99.90
2018-05-18T03:55:47.527Z,99.90
2018-05-18T04:00:41.574Z,99.90
2018-05-18T04:05:52.502Z,99.90
2018-05-18T04:10:46.603Z,99.90
2018-05-18T04:15:40.663Z,99.90
2018-05-18T04:20:33.977Z,99.90
2018-05-18T04:25:28.011Z,99.90
2018-05-18T04:30:21.379Z,99.90
2018-05-18T04:35:14.619Z,99.90
2018-05-18T04:40:08.679Z,99.90
2018-05-18T04:45:01.992Z,99.90
2018-05-18T04:49:56.060Z,99.90
2018-05-18T04:54:49.366Z,99.90
2018-05-18T04:59:43.428Z,99.90
2018-05-18T05:04:36.734Z,99.90
2018-05-18T05:09:30.798Z,99.90
2018-05-18T05:14:24.115Z,99.90
2018-05-18T05:19:18.175Z,99.90
2018-05-18T05:24:11.473Z,99.90
2018-05-18T05:29:04.758Z,99.90
2018-05-18T05:33:58.058Z,99.20
2018-05-18T05:38:51.345Z,99.50
2018-05-18T05:43:45.412Z,99.00
2018-05-18T05:48:39.480Z,98.30
2018-05-18T05:53:34.016Z,98.30
2018-05-18T05:58:27.379Z,98.70
2018-05-18T06:03:20.607Z,98.70
2018-05-18T06:08:13.905Z,97.50
2018-05-18T06:13:07.238Z,97.10
2018-05-18T06:18:00.535Z,96.80
2018-05-18T06:22:53.823Z,97.40
2018-05-18T06:27:47.133Z,97.80
2018-05-18T06:32:41.193Z,97.20
2018-05-18T06:37:34.508Z,97.20
2018-05-18T06:42:28.567Z,97.90
2018-05-18T06:47:21.867Z,97.80
2018-05-18T06:52:15.163Z,95.90
2018-05-18T06:57:08.527Z,96.10
2018-05-18T07:02:02.586Z,95.50
2018-05-18T07:06:55.888Z,95.50
2018-05-18T07:11:49.217Z,95.40
2018-05-18T07:16:42.488Z,96.10
2018-05-18T07:21:35.799Z,95.40
2018-05-18T07:26:29.362Z,95.40
2018-05-18T07:31:22.679Z,94.90
2018-05-18T07:36:16.077Z,93.60
2018-05-18T07:41:09.384Z,94.30
2018-05-18T07:46:02.696Z,94.80
2018-05-18T07:50:56.003Z,93.30
2018-05-18T07:55:50.920Z,93.30
2018-05-18T08:00:44.249Z,93.30
2018-05-18T08:05:37.565Z,94.10
2018-05-18T08:10:30.867Z,93.70
2018-05-18T08:15:24.175Z,92.80
2018-05-18T08:20:17.473Z,92.60
2018-05-18T08:25:10.787Z,92.30
2018-05-18T08:30:04.111Z,91.40
2018-05-18T08:34:59.051Z,91.20
2018-05-18T08:39:52.384Z,88.60
2018-05-18T08:44:45.704Z,80.70
2018-05-18T08:49:39.019Z,81.50
2018-05-18T08:54:32.355Z,84.70
2018-05-18T08:59:25.668Z,86.60
2018-05-18T09:04:19.027Z,88.80
2018-05-18T09:09:12.394Z,86.30
2018-05-18T09:14:05.704Z,83.00
2018-05-18T09:18:59.777Z,80.20
2018-05-18T09:23:53.082Z,80.20
2018-05-18T09:28:46.670Z,80.70
2018-05-18T09:33:40.774Z,82.20
2018-05-18T09:38:34.083Z,82.20
2018-05-18T09:43:27.390Z,83.80
2018-05-18T09:48:20.700Z,84.10
2018-05-18T09:53:14.029Z,83.10
2018-05-18T09:58:07.354Z,80.80
2018-05-18T10:03:00.663Z,78.50
2018-05-18T10:07:53.991Z,77.60
2018-05-18T10:12:47.288Z,77.70
2018-05-18T10:17:40.595Z,77.90
2018-05-18T10:22:33.913Z,83.30
2018-05-18T10:27:28.004Z,84.20
2018-05-18T10:32:22.082Z,82.10
2018-05-18T10:37:15.382Z,82.00
2018-05-18T10:42:09.470Z,75.20
2018-05-18T10:47:03.520Z,76.30
2018-05-18T10:51:56.852Z,76.30
2018-05-18T10:56:50.925Z,73.80
2018-05-18T11:01:44.215Z,73.80
2018-05-18T11:06:37.519Z,71.50
2018-05-18T11:11:30.823Z,68.70
2018-05-18T11:16:24.129Z,68.90
2018-05-18T11:21:17.434Z,69.70
2018-05-18T11:26:11.954Z,73.00
2018-05-18T11:31:05.171Z,73.00
2018-05-18T11:35:58.493Z,70.20
2018-05-18T11:40:51.794Z,64.90
2018-05-18T11:45:45.088Z,68.50
2018-05-18T11:50:38.388Z,67.40
2018-05-18T11:55:31.692Z,68.40
2018-05-18T12:00:24.987Z,69.70
2018-05-18T12:05:18.283Z,69.40
2018-05-18T12:10:12.936Z,71.50
2018-05-18T12:15:06.248Z,68.20
2018-05-18T12:20:00.297Z,61.60
2018-05-18T12:24:53.597Z,62.40
2018-05-18T12:29:46.908Z,67.60
2018-05-18T12:34:40.269Z,71.50
2018-05-18T12:44:40.834Z,67.10
2018-05-18T12:49:40.338Z,64.90
2018-05-18T12:54:34.383Z,70.10
2018-05-18T12:59:27.788Z,61.00
2018-05-18T13:04:21.009Z,61.00
2018-05-18T13:09:15.199Z,57.00
2018-05-18T13:14:09.286Z,56.90
2018-05-18T13:19:02.577Z,56.70
2018-05-18T13:23:56.852Z,57.90
2018-05-18T13:28:50.156Z,57.80
2018-05-18T13:33:44.211Z,55.10
2018-05-18T13:38:37.518Z,55.10
2018-05-18T13:43:30.840Z,54.50
2018-05-18T13:48:24.227Z,53.50
2018-05-18T13:53:17.495Z,57.10
2018-05-18T13:58:10.789Z,58.80
2018-05-18T14:03:04.102Z,60.50
2018-05-18T14:07:57.405Z,57.20
2018-05-18T14:12:50.695Z,59.70
2018-05-18T14:17:43.997Z,61.20
2018-05-18T14:22:38.103Z,57.70
2018-05-18T14:27:32.191Z,56.50
2018-05-18T14:32:25.483Z,56.50
2018-05-18T14:37:18.783Z,58.10
2018-05-18T14:42:12.089Z,57.00
2018-05-18T14:47:05.410Z,60.90
2018-05-18T14:51:58.711Z,54.20
2018-05-18T14:56:52.009Z,54.80
2018-05-18T15:01:46.077Z,60.80
2018-05-18T15:06:39.344Z,60.60
2018-05-18T15:11:32.649Z,57.50
2018-05-18T15:16:26.813Z,53.40
2018-05-18T15:21:20.821Z,55.20
2018-05-18T15:26:14.130Z,55.10
2018-05-18T15:31:08.184Z,53.20
2018-05-18T15:36:01.482Z,53.20
2018-05-18T15:40:54.783Z,52.00
2018-05-18T15:45:48.186Z,54.20
2018-05-18T15:50:41.497Z,56.30
2018-05-18T15:55:34.793Z,54.10
2018-05-18T16:00:28.938Z,55.30
2018-05-18T16:05:22.296Z,55.10
2018-05-18T16:10:15.616Z,56.20
2018-05-18T16:15:09.280Z,58.20
2018-05-18T16:20:02.589Z,61.60
2018-05-18T16:24:55.905Z,62.90
2018-05-18T16:29:49.976Z,63.30
2018-05-18T16:34:44.036Z,63.50
2018-05-18T16:39:37.334Z,63.50
2018-05-18T16:44:30.624Z,67.20
2018-05-18T16:49:23.959Z,67.20
2018-05-18T16:54:17.272Z,66.80
2018-05-18T16:59:10.584Z,69.00
2018-05-18T17:04:03.865Z,67.70
2018-05-18T17:08:57.175Z,68.10
2018-05-18T17:13:50.487Z,68.60
2018-05-18T17:18:44.587Z,67.70
2018-05-18T17:23:37.899Z,68.10
2018-05-18T17:28:31.195Z,69.40
2018-05-18T17:33:24.514Z,70.90
2018-05-18T17:38:18.565Z,70.80
2018-05-18T17:43:11.851Z,70.60
2018-05-18T17:48:05.170Z,70.90
2018-05-18T17:52:59.233Z,71.80
2018-05-18T17:57:52.533Z,71.90
2018-05-18T18:02:46.587Z,73.10
2018-05-18T18:07:39.889Z,73.00
2018-05-18T18:12:33.187Z,72.80
2018-05-18T18:17:27.239Z,75.30
2018-05-18T18:22:20.627Z,75.20
2018-05-18T18:27:14.639Z,76.70
2018-05-18T18:32:07.942Z,76.70
2018-05-18T18:41:59.467Z,76.80
2018-05-18T18:46:52.782Z,77.40
2018-05-18T18:51:46.848Z,81.70
2018-05-18T18:56:40.144Z,81.60
2018-05-18T19:01:33.523Z,81.90
2018-05-18T19:06:27.587Z,81.00
2018-05-18T19:11:20.925Z,80.90
2018-05-18T19:16:14.226Z,82.60
2018-05-18T19:21:08.356Z,82.80
2018-05-18T19:26:01.665Z,82.80
2018-05-18T19:30:56.206Z,83.30
2018-05-18T19:35:49.507Z,83.20
2018-05-18T19:40:42.805Z,84.40
2018-05-18T19:45:36.158Z,86.00
2018-05-18T19:50:29.457Z,86.90
2018-05-18T19:55:23.515Z,89.00
2018-05-18T20:00:16.828Z,89.00
2018-05-18T20:05:10.927Z,89.10
2018-05-18T20:10:05.005Z,88.70
2018-05-18T20:14:58.311Z,88.60
2018-05-18T20:19:52.465Z,89.80
2018-05-18T20:24:46.498Z,90.40
2018-05-18T20:29:40.590Z,89.60
2018-05-18T20:34:34.667Z,89.50
2018-05-18T20:39:27.994Z,89.50
2018-05-18T20:44:22.072Z,90.90
2018-05-18T20:49:15.421Z,90.90
2018-05-18T20:54:09.502Z,90.80
2018-05-18T20:59:02.826Z,90.80
2018-05-18T21:03:56.132Z,90.70
2018-05-18T21:08:49.430Z,90.90
2018-05-18T21:13:42.735Z,91.30
2018-05-18T21:18:36.803Z,92.00
2018-05-18T21:23:30.691Z,91.90
2018-05-18T21:28:24.002Z,92.20
2018-05-18T21:33:18.074Z,91.90
2018-05-18T21:38:11.377Z,91.80
2018-05-18T21:43:05.451Z,92.00
2018-05-18T21:47:58.753Z,92.00
2018-05-18T21:52:52.816Z,92.00
2018-05-18T21:57:46.122Z,92.00
2018-05-18T22:02:40.227Z,92.10
2018-05-18T22:07:33.523Z,92.10
2018-05-18T22:12:26.867Z,92.80
2018-05-18T22:17:20.934Z,92.30
2018-05-18T22:22:14.296Z,92.30
2018-05-18T22:27:07.623Z,92.60
2018-05-18T22:32:01.708Z,93.60
2018-05-18T22:36:55.783Z,93.30
2018-05-18T22:41:49.083Z,93.30
2018-05-18T22:46:42.399Z,93.50
2018-05-18T22:51:35.733Z,93.50
2018-05-18T22:56:29.787Z,93.10
2018-05-18T23:01:23.079Z,93.40
2018-05-18T23:06:16.402Z,93.60
2018-05-18T23:11:09.703Z,93.50
2018-05-18T23:16:02.972Z,93.10
2018-05-18T23:20:56.266Z,93.30
2018-05-18T23:25:49.641Z,93.20
2018-05-18T23:30:42.909Z,93.90
2018-05-18T23:35:36.223Z,93.40
2018-05-18T23:40:29.553Z,93.40
2018-05-18T23:45:22.855Z,93.50
2018-05-18T23:50:17.030Z,93.50
2018-05-18T23:55:10.323Z,93.50
